createdAt,value
2023-03-05T00:00:50.370Z,70.70
2023-03-05T00:03:25.895Z,70.68
2023-03-05T00:05:55.896Z,70.54
2023-03-05T00:08:22.858Z,70.33
2023-03-05T00:11:00.205Z,69.51
2023-03-05T00:13:27.595Z,69.86
2023-03-05T00:15:54.572Z,70.39
2023-03-05T00:18:21.688Z,70.67
2023-03-05T00:20:49.187Z,70.96
2023-03-05T00:23:16.065Z,70.99
2023-03-05T00:25:43.126Z,70.97
2023-03-05T00:28:10.050Z,70.61
2023-03-05T00:30:36.789Z,70.72
2023-03-05T00:33:03.595Z,71.31
2023-03-05T00:35:31.358Z,71.51
2023-03-05T00:37:58.317Z,71.40
2023-03-05T00:40:25.233Z,71.28
2023-03-05T00:42:52.418Z,71.04
2023-03-05T00:45:19.366Z,71.16
2023-03-05T00:47:46.182Z,71.10
2023-03-05T00:50:13.066Z,71.24
2023-03-05T00:52:39.929Z,70.94
2023-03-05T00:55:07.092Z,71.05
2023-03-05T00:57:33.940Z,71.09
2023-03-05T01:00:00.735Z,70.96
2023-03-05T01:02:27.637Z,70.89
2023-03-05T01:04:54.531Z,70.90
2023-03-05T01:07:21.315Z,71.04
2023-03-05T01:09:48.141Z,71.19
2023-03-05T01:12:15.010Z,69.61
2023-03-05T01:14:41.924Z,69.74
2023-03-05T01:17:08.961Z,70.46
2023-03-05T01:19:35.900Z,70.57
2023-03-05T01:22:02.849Z,70.53
2023-03-05T01:24:30.928Z,70.74
2023-03-05T01:26:58.084Z,70.85
2023-03-05T01:29:25.031Z,71.45
2023-03-05T01:31:52.220Z,71.03
2023-03-05T01:34:20.873Z,71.26
2023-03-05T01:36:50.003Z,71.58
2023-03-05T01:39:16.986Z,71.44
2023-03-05T01:41:43.859Z,72.36
2023-03-05T01:44:29.588Z,72.17
2023-03-05T01:46:56.858Z,71.99
2023-03-05T01:49:37.425Z,72.14
2023-03-05T01:52:07.483Z,72.35
2023-03-05T01:54:46.010Z,72.15
2023-03-05T01:57:24.411Z,72.15
2023-03-05T01:59:54.097Z,72.18
2023-03-05T02:02:24.091Z,72.38
2023-03-05T02:04:54.323Z,72.61
2023-03-05T02:07:21.996Z,72.64
2023-03-05T02:09:49.144Z,72.48
2023-03-05T02:12:16.468Z,72.57
2023-03-05T02:14:45.844Z,72.37
2023-03-05T02:17:13.122Z,72.37
2023-03-05T02:19:48.925Z,72.34
2023-03-05T02:22:19.205Z,71.97
2023-03-05T02:24:46.009Z,72.22
2023-03-05T02:27:14.362Z,73.66
2023-03-05T02:29:43.255Z,73.48
2023-03-05T02:32:10.924Z,74.52
2023-03-05T02:34:38.312Z,73.22
2023-03-05T02:37:08.521Z,73.17
2023-03-05T02:39:35.730Z,73.18
2023-03-05T02:42:02.834Z,73.28
2023-03-05T02:44:29.723Z,72.89
2023-03-05T02:46:56.581Z,73.05
2023-03-05T02:49:23.746Z,73.04
2023-03-05T02:51:50.720Z,73.23
2023-03-05T02:54:17.851Z,73.25
2023-03-05T02:56:44.796Z,73.07
2023-03-05T02:59:11.717Z,73.65
2023-03-05T03:01:38.734Z,73.29
2023-03-05T03:04:05.790Z,73.03
2023-03-05T03:06:32.696Z,73.14
2023-03-05T03:08:59.478Z,72.98
2023-03-05T03:11:26.297Z,72.90
2023-03-05T03:13:53.090Z,72.99
2023-03-05T03:16:20.211Z,74.96
2023-03-05T03:18:48.241Z,74.13
2023-03-05T03:21:23.003Z,73.83
2023-03-05T03:23:49.906Z,73.67
2023-03-05T03:26:16.864Z,73.75
2023-03-05T03:28:43.927Z,73.85
2023-03-05T03:31:10.793Z,73.96
2023-03-05T03:33:37.690Z,73.66
2023-03-05T03:36:04.905Z,73.74
2023-03-05T03:38:31.764Z,74.15
2023-03-05T03:40:58.716Z,74.04
2023-03-05T03:43:25.664Z,73.95
2023-03-05T03:45:52.645Z,73.81
2023-03-05T03:48:19.668Z,74.11
2023-03-05T03:50:46.723Z,73.90
2023-03-05T03:53:13.983Z,74.35
2023-03-05T03:55:42.390Z,74.02
2023-03-05T03:58:09.380Z,74.29
2023-03-05T04:00:36.267Z,74.40
2023-03-05T04:03:03.316Z,74.15
2023-03-05T04:05:30.323Z,74.43
2023-03-05T04:07:58.137Z,74.51
2023-03-05T04:10:25.408Z,74.55
2023-03-05T04:12:52.449Z,74.54
2023-03-05T04:15:19.400Z,74.79
2023-03-05T04:17:46.217Z,74.79
2023-03-05T04:20:13.097Z,75.03
2023-03-05T04:22:39.901Z,74.82
2023-03-05T04:25:07.937Z,74.95
2023-03-05T04:27:36.945Z,74.83
2023-03-05T04:30:04.168Z,75.37
2023-03-05T04:32:31.648Z,75.04
2023-03-05T04:34:58.549Z,75.28
2023-03-05T04:37:25.675Z,75.34
2023-03-05T04:39:52.769Z,75.24
2023-03-05T04:42:20.694Z,75.57
2023-03-05T04:44:50.740Z,75.38
2023-03-05T04:47:18.377Z,75.28
2023-03-05T04:49:45.784Z,75.66
2023-03-05T04:52:13.343Z,75.52
2023-03-05T04:54:40.182Z,75.73
2023-03-05T04:57:07.379Z,75.69
2023-03-05T04:59:34.332Z,75.50
2023-03-05T05:02:01.138Z,75.55
2023-03-05T05:04:27.943Z,75.81
2023-03-05T05:06:55.998Z,75.74
2023-03-05T05:09:23.097Z,75.95
2023-03-05T05:11:50.015Z,75.98
2023-03-05T05:14:17.122Z,76.05
2023-03-05T05:16:43.938Z,75.56
2023-03-05T05:19:11.026Z,75.93
2023-03-05T05:21:38.053Z,75.80
2023-03-05T05:24:05.354Z,76.07
2023-03-05T05:26:32.360Z,76.30
2023-03-05T05:28:59.118Z,76.20
2023-03-05T05:31:25.944Z,76.09
2023-03-05T05:33:52.797Z,75.79
2023-03-05T05:36:21.685Z,76.02
2023-03-05T05:38:49.590Z,76.23
2023-03-05T05:41:17.529Z,76.21
2023-03-05T05:43:44.716Z,76.10
2023-03-05T05:46:13.229Z,76.48
2023-03-05T05:48:40.189Z,76.52
2023-03-05T05:51:08.644Z,76.82
2023-03-05T05:53:36.390Z,76.91
2023-03-05T05:56:04.314Z,77.20
2023-03-05T05:58:31.192Z,77.41
2023-03-05T06:00:58.101Z,77.75
2023-03-05T06:03:24.951Z,77.59
2023-03-05T06:05:51.941Z,77.47
2023-03-05T06:08:19.154Z,77.61
2023-03-05T06:10:52.759Z,77.52
2023-03-05T06:13:19.887Z,77.36
2023-03-05T06:15:54.751Z,77.68
2023-03-05T06:18:21.640Z,78.03
2023-03-05T06:20:58.426Z,77.73
2023-03-05T06:23:25.947Z,77.63
2023-03-05T06:25:53.208Z,77.76
2023-03-05T06:28:20.811Z,78.07
2023-03-05T06:30:47.705Z,78.07
2023-03-05T06:33:14.801Z,78.28
2023-03-05T06:35:41.757Z,78.16
2023-03-05T06:38:09.174Z,77.72
2023-03-05T06:40:38.862Z,77.79
2023-03-05T06:43:05.767Z,78.02
2023-03-05T06:45:32.806Z,77.82
2023-03-05T06:47:59.695Z,78.23
2023-03-05T06:50:26.859Z,78.10
2023-03-05T06:52:54.064Z,77.85
2023-03-05T06:55:21.258Z,77.40
2023-03-05T06:57:48.381Z,76.22
2023-03-05T07:00:15.583Z,75.38
2023-03-05T07:02:42.941Z,75.30
2023-03-05T07:05:10.045Z,75.51
2023-03-05T07:07:37.506Z,75.99
2023-03-05T07:10:06.948Z,76.08
2023-03-05T07:12:34.375Z,75.95
2023-03-05T07:15:01.427Z,75.54
2023-03-05T07:17:28.366Z,74.52
2023-03-05T07:19:55.397Z,72.14
2023-03-05T07:22:22.396Z,72.06
2023-03-05T07:24:50.063Z,71.39
2023-03-05T07:27:17.099Z,69.63
2023-03-05T07:29:44.259Z,70.03
2023-03-05T07:32:11.336Z,72.37
2023-03-05T07:34:38.784Z,73.83
2023-03-05T07:37:05.720Z,76.69
2023-03-05T07:39:32.884Z,72.07
2023-03-05T07:41:59.940Z,71.60
2023-03-05T07:44:29.137Z,72.29
2023-03-05T07:46:56.195Z,72.12
2023-03-05T07:49:23.440Z,72.23
2023-03-05T07:51:50.606Z,72.39
2023-03-05T07:54:17.652Z,72.21
2023-03-05T07:56:44.714Z,70.98
2023-03-05T07:59:12.988Z,72.73
2023-03-05T08:01:40.048Z,74.14
2023-03-05T08:04:07.889Z,74.87
2023-03-05T08:06:34.863Z,75.38
2023-03-05T08:09:01.911Z,75.41
2023-03-05T08:11:28.860Z,75.92
2023-03-05T08:13:58.795Z,75.95
2023-03-05T08:16:26.145Z,75.93
2023-03-05T08:18:57.008Z,75.56
2023-03-05T08:21:33.342Z,75.07
2023-03-05T08:24:01.622Z,75.18
2023-03-05T08:26:29.507Z,74.61
2023-03-05T08:28:56.648Z,74.69
2023-03-05T08:31:24.647Z,74.30
2023-03-05T08:33:52.905Z,74.26
2023-03-05T08:36:20.265Z,74.16
2023-03-05T08:38:48.146Z,74.00
2023-03-05T08:41:15.909Z,72.65
2023-03-05T08:43:42.862Z,71.67
2023-03-05T08:46:11.185Z,71.89
2023-03-05T08:48:38.292Z,72.41
2023-03-05T08:51:07.289Z,71.98
2023-03-05T08:53:34.342Z,71.99
2023-03-05T08:56:01.301Z,71.98
2023-03-05T08:58:28.348Z,70.77
2023-03-05T09:00:56.012Z,69.61
2023-03-05T09:03:23.173Z,70.71
2023-03-05T09:05:50.935Z,71.41
2023-03-05T09:08:18.502Z,71.51
2023-03-05T09:10:45.962Z,71.46
2023-03-05T09:13:12.983Z,70.97
2023-03-05T09:15:39.865Z,70.48
2023-03-05T09:18:08.658Z,70.11
2023-03-05T09:20:36.120Z,69.71
2023-03-05T09:23:03.382Z,69.66
2023-03-05T09:25:30.326Z,70.08
2023-03-05T09:27:57.276Z,69.53
2023-03-05T09:30:24.127Z,69.38
2023-03-05T09:32:51.106Z,69.96
2023-03-05T09:35:18.235Z,69.86
2023-03-05T09:37:45.343Z,68.40
2023-03-05T09:40:15.198Z,68.24
2023-03-05T09:42:48.033Z,68.18
2023-03-05T09:45:17.698Z,68.52
2023-03-05T09:47:56.934Z,69.04
2023-03-05T09:50:36.201Z,68.21
2023-03-05T09:53:23.380Z,67.86
2023-03-05T09:55:52.266Z,69.57
2023-03-05T09:58:25.050Z,69.33
2023-03-05T10:01:04.077Z,68.49
2023-03-05T10:03:53.182Z,68.45
2023-03-05T10:06:20.183Z,68.70
2023-03-05T10:09:16.611Z,69.44
2023-03-05T10:12:02.373Z,67.84
2023-03-05T10:14:30.451Z,69.40
2023-03-05T10:17:03.656Z,68.03
2023-03-05T10:19:36.751Z,67.26
2023-03-05T10:22:06.668Z,67.11
2023-03-05T10:24:52.625Z,67.68
2023-03-05T10:27:21.237Z,69.00
2023-03-05T10:30:00.419Z,68.44
2023-03-05T10:32:46.109Z,68.83
2023-03-05T10:35:13.023Z,67.90
2023-03-05T10:38:06.142Z,68.30
2023-03-05T10:40:40.463Z,67.63
2023-03-05T10:43:27.804Z,67.77
2023-03-05T10:45:56.841Z,68.64
2023-03-05T10:48:44.600Z,67.86
2023-03-05T10:51:17.928Z,67.35
2023-03-05T10:54:08.074Z,67.09
2023-03-05T10:56:34.922Z,68.10
2023-03-05T10:59:01.902Z,68.44
2023-03-05T11:01:31.338Z,67.05
2023-03-05T11:03:59.264Z,67.23
2023-03-05T11:06:29.168Z,68.52
2023-03-05T11:09:13.620Z,68.81
2023-03-05T11:11:40.469Z,68.40
2023-03-05T11:14:21.741Z,67.66
2023-03-05T11:16:50.430Z,67.52
2023-03-05T11:19:18.102Z,68.36
2023-03-05T11:21:46.071Z,68.61
2023-03-05T11:24:18.447Z,67.36
2023-03-05T11:26:50.002Z,67.07
2023-03-05T11:29:19.205Z,66.88
2023-03-05T11:31:46.159Z,66.30
2023-03-05T11:34:16.381Z,66.87
2023-03-05T11:37:04.001Z,67.00
2023-03-05T11:39:34.146Z,68.23
2023-03-05T11:42:04.700Z,67.69
2023-03-05T11:44:51.257Z,68.29
2023-03-05T11:47:36.729Z,68.48
2023-03-05T11:50:15.893Z,68.73
2023-03-05T11:52:54.064Z,68.44
2023-03-05T11:55:34.635Z,67.89
2023-03-05T11:58:16.630Z,68.59
2023-03-05T12:00:44.806Z,68.90
2023-03-05T12:03:14.515Z,69.55
2023-03-05T12:05:44.229Z,69.57
2023-03-05T12:08:14.045Z,68.34
2023-03-05T12:10:41.096Z,68.66
2023-03-05T12:13:20.635Z,68.40
2023-03-05T12:16:05.427Z,69.02
2023-03-05T12:18:52.478Z,68.50
2023-03-05T12:21:38.546Z,69.22
2023-03-05T12:24:26.529Z,68.78
2023-03-05T12:27:03.618Z,69.04
2023-03-05T12:29:49.312Z,69.32
2023-03-05T12:32:22.786Z,68.70
2023-03-05T12:34:57.101Z,68.37
2023-03-05T12:37:23.951Z,68.26
2023-03-05T12:40:00.413Z,67.54
2023-03-05T12:42:30.194Z,66.90
2023-03-05T12:45:09.772Z,67.35
2023-03-05T12:47:43.572Z,68.13
2023-03-05T12:50:28.890Z,68.47
2023-03-05T12:53:15.347Z,68.44
2023-03-05T12:55:44.257Z,68.14
2023-03-05T12:58:17.032Z,68.40
2023-03-05T13:00:48.908Z,68.13
2023-03-05T13:03:21.923Z,68.32
2023-03-05T13:05:53.623Z,68.49
2023-03-05T13:08:26.213Z,68.34
2023-03-05T13:11:02.477Z,68.30
2023-03-05T13:13:32.377Z,68.28
2023-03-05T13:16:00.090Z,68.35
2023-03-05T13:18:28.733Z,68.53
2023-03-05T13:21:12.980Z,68.39
2023-03-05T13:23:46.223Z,68.38
2023-03-05T13:26:18.361Z,68.01
2023-03-05T13:29:02.075Z,68.69
2023-03-05T13:31:29.755Z,68.39
2023-03-05T13:34:07.539Z,67.87
2023-03-05T13:36:34.587Z,67.37
2023-03-05T13:39:03.586Z,66.92
2023-03-05T13:41:30.947Z,67.75
2023-03-05T13:43:59.660Z,67.52
2023-03-05T13:46:34.376Z,66.49
2023-03-05T13:49:19.109Z,66.11
2023-03-05T13:51:47.603Z,66.35
2023-03-05T13:54:15.996Z,66.77
2023-03-05T13:56:58.301Z,66.59
2023-03-05T13:59:28.171Z,66.53
2023-03-05T14:01:56.281Z,66.42
2023-03-05T14:04:25.024Z,66.45
2023-03-05T14:06:59.608Z,66.01
2023-03-05T14:09:28.086Z,66.12
2023-03-05T14:12:00.153Z,66.46
2023-03-05T14:14:28.229Z,65.77
2023-03-05T14:16:55.428Z,66.43
2023-03-05T14:19:34.619Z,65.79
2023-03-05T14:22:01.964Z,66.98
2023-03-05T14:24:30.869Z,66.18
2023-03-05T14:27:05.201Z,65.53
2023-03-05T14:29:32.546Z,65.91
2023-03-05T14:31:59.506Z,66.49
2023-03-05T14:34:29.558Z,69.02
2023-03-05T14:37:02.817Z,69.43
2023-03-05T14:39:50.335Z,68.29
2023-03-05T14:42:32.746Z,68.23
2023-03-05T14:45:01.892Z,69.02
2023-03-05T14:47:29.097Z,69.13
2023-03-05T14:49:55.941Z,70.06
2023-03-05T14:52:24.642Z,70.13
2023-03-05T14:54:51.901Z,69.89
2023-03-05T14:57:20.789Z,69.85
2023-03-05T14:59:47.950Z,69.63
2023-03-05T15:02:16.128Z,69.11
2023-03-05T15:04:45.222Z,69.73
2023-03-05T15:07:31.216Z,69.67
2023-03-05T15:09:59.484Z,69.58
2023-03-05T15:12:26.537Z,69.35
2023-03-05T15:14:54.613Z,69.66
2023-03-05T15:17:33.023Z,69.52
2023-03-05T15:20:00.482Z,69.28
2023-03-05T15:22:27.537Z,69.46
2023-03-05T15:24:54.485Z,69.53
2023-03-05T15:27:21.437Z,69.64
2023-03-05T15:29:48.593Z,69.48
2023-03-05T15:32:15.775Z,69.09
2023-03-05T15:34:42.912Z,69.01
2023-03-05T15:37:09.856Z,69.20
2023-03-05T15:39:36.702Z,69.45
2023-03-05T15:42:06.280Z,69.20
2023-03-05T15:44:33.674Z,68.95
2023-03-05T15:47:00.630Z,69.22
2023-03-05T15:49:27.701Z,69.23
2023-03-05T15:51:55.138Z,69.23
2023-03-05T15:54:21.990Z,68.92
2023-03-05T15:56:49.040Z,69.01
2023-03-05T15:59:15.897Z,69.04
2023-03-05T16:01:50.261Z,69.15
2023-03-05T16:04:18.188Z,68.99
2023-03-05T16:06:46.539Z,68.50
2023-03-05T16:09:15.049Z,68.14
2023-03-05T16:11:47.424Z,68.40
2023-03-05T16:14:16.933Z,68.92
2023-03-05T16:16:44.147Z,69.24
2023-03-05T16:19:13.196Z,69.17
2023-03-05T16:21:40.244Z,69.43
2023-03-05T16:24:07.199Z,69.45
2023-03-05T16:26:35.267Z,69.45
2023-03-05T16:29:02.526Z,69.44
2023-03-05T16:31:37.693Z,69.19
2023-03-05T16:34:04.719Z,69.12
2023-03-05T16:36:34.532Z,69.03
2023-03-05T16:39:03.128Z,69.10
2023-03-05T16:41:30.071Z,68.74
2023-03-05T16:43:58.668Z,69.33
2023-03-05T16:46:27.821Z,69.51
2023-03-05T16:48:55.132Z,69.70
2023-03-05T16:51:22.190Z,70.10
2023-03-05T16:53:49.225Z,70.20
2023-03-05T16:56:16.283Z,69.20
2023-03-05T16:58:43.232Z,69.27
2023-03-05T17:01:11.744Z,70.22
2023-03-05T17:03:41.165Z,70.77
2023-03-05T17:06:19.737Z,70.32
2023-03-05T17:08:47.313Z,70.71
2023-03-05T17:11:14.980Z,71.03
2023-03-05T17:13:41.812Z,71.04
2023-03-05T17:16:10.632Z,71.02
2023-03-05T17:18:37.556Z,71.12
2023-03-05T17:21:05.332Z,71.01
2023-03-05T17:23:33.208Z,71.35
2023-03-05T17:26:02.808Z,71.18
2023-03-05T17:28:29.862Z,71.61
2023-03-05T17:30:59.676Z,71.14
2023-03-05T17:33:28.100Z,71.33
2023-03-05T17:35:55.473Z,71.43
2023-03-05T17:38:22.997Z,71.25
2023-03-05T17:40:49.934Z,71.05
2023-03-05T17:43:17.702Z,71.40
2023-03-05T17:45:46.609Z,71.34
2023-03-05T17:48:13.755Z,71.85
2023-03-05T17:50:41.214Z,71.80
2023-03-05T17:53:09.292Z,71.78
2023-03-05T17:55:36.342Z,72.09
2023-03-05T17:58:03.193Z,71.97
2023-03-05T18:00:30.141Z,71.70
2023-03-05T18:02:57.751Z,71.62
2023-03-05T18:05:25.478Z,71.89
2023-03-05T18:07:52.971Z,71.77
2023-03-05T18:10:20.607Z,71.97
2023-03-05T18:12:48.794Z,71.68
2023-03-05T18:15:16.865Z,71.50
2023-03-05T18:17:44.222Z,71.60
2023-03-05T18:20:22.079Z,71.66
2023-03-05T18:22:49.074Z,71.62
2023-03-05T18:25:16.128Z,71.54
2023-03-05T18:27:43.181Z,71.68
2023-03-05T18:30:10.545Z,71.88
2023-03-05T18:32:37.586Z,71.77
2023-03-05T18:35:05.973Z,71.43
2023-03-05T18:37:32.922Z,71.61
2023-03-05T18:40:00.411Z,71.82
2023-03-05T18:42:27.439Z,71.59
2023-03-05T18:44:56.458Z,71.83
2023-03-05T18:47:23.485Z,71.42
2023-03-05T18:49:52.688Z,71.23
2023-03-05T18:52:20.151Z,71.66
2023-03-05T18:54:46.998Z,71.34
2023-03-05T18:57:13.949Z,71.43
2023-03-05T18:59:41.004Z,71.05
2023-03-05T19:02:15.526Z,71.23
2023-03-05T19:04:42.930Z,71.25
2023-03-05T19:07:10.144Z,71.23
2023-03-05T19:09:59.423Z,71.48
2023-03-05T19:12:32.324Z,71.42
2023-03-05T19:14:59.240Z,71.11
2023-03-05T19:17:26.398Z,71.27
2023-03-05T19:19:53.710Z,71.26
2023-03-05T19:22:20.987Z,71.12
2023-03-05T19:24:47.965Z,71.08
2023-03-05T19:27:15.118Z,71.23
2023-03-05T19:29:43.079Z,71.49
2023-03-05T19:32:11.466Z,71.24
2023-03-05T19:34:38.525Z,70.95
2023-03-05T19:37:05.682Z,71.42
2023-03-05T19:39:33.142Z,71.27
2023-03-05T19:42:00.161Z,71.50
2023-03-05T19:44:27.250Z,71.40
2023-03-05T19:46:54.333Z,71.45
2023-03-05T19:49:21.455Z,71.54
2023-03-05T19:51:49.017Z,71.37
2023-03-05T19:54:16.774Z,71.46
2023-03-05T19:56:44.455Z,71.72
2023-03-05T19:59:15.909Z,71.78
2023-03-05T20:01:44.265Z,71.92
2023-03-05T20:04:13.680Z,72.06
2023-03-05T20:06:40.956Z,71.93
2023-03-05T20:09:08.620Z,72.02
2023-03-05T20:11:36.194Z,72.20
2023-03-05T20:14:03.239Z,72.28
2023-03-05T20:16:37.033Z,72.13
2023-03-05T20:19:05.122Z,71.94
2023-03-05T20:21:34.452Z,71.67
2023-03-05T20:24:02.735Z,72.03
2023-03-05T20:26:30.102Z,72.07
2023-03-05T20:28:57.428Z,71.88
2023-03-05T20:31:25.537Z,72.27
2023-03-05T20:33:53.073Z,72.12
2023-03-05T20:36:19.981Z,72.25
2023-03-05T20:38:47.002Z,71.78
2023-03-05T20:41:16.177Z,71.80
2023-03-05T20:43:44.657Z,71.51
2023-03-05T20:46:31.030Z,71.98
2023-03-05T20:48:58.722Z,71.95
2023-03-05T20:51:28.540Z,71.68
2023-03-05T20:53:57.757Z,71.69
2023-03-05T20:56:27.294Z,72.17
2023-03-05T20:58:57.882Z,72.14
2023-03-05T21:01:25.448Z,73.53
2023-03-05T21:03:53.241Z,73.67
2023-03-05T21:06:20.272Z,73.34
2023-03-05T21:08:47.120Z,73.15
2023-03-05T21:11:14.373Z,72.79
2023-03-05T21:13:41.276Z,73.00
2023-03-05T21:16:09.650Z,72.98
2023-03-05T21:18:36.664Z,72.97
2023-03-05T21:21:03.660Z,72.88
2023-03-05T21:23:30.764Z,72.95
2023-03-05T21:25:57.828Z,73.17
2023-03-05T21:28:24.766Z,73.34
2023-03-05T21:30:53.224Z,73.18
2023-03-05T21:33:27.775Z,73.15
2023-03-05T21:35:57.545Z,73.31
2023-03-05T21:38:25.300Z,73.23
2023-03-05T21:40:53.301Z,73.15
2023-03-05T21:43:21.729Z,73.31
2023-03-05T21:45:51.939Z,73.22
2023-03-05T21:48:19.308Z,73.75
2023-03-05T21:50:47.184Z,73.36
2023-03-05T21:53:16.126Z,73.34
2023-03-05T21:56:03.372Z,73.86
2023-03-05T21:58:36.057Z,73.69
2023-03-05T22:01:02.952Z,73.62
2023-03-05T22:03:30.639Z,73.38
2023-03-05T22:05:57.828Z,73.75
2023-03-05T22:08:24.629Z,72.99
2023-03-05T22:10:51.627Z,73.78
2023-03-05T22:13:19.701Z,73.91
2023-03-05T22:15:56.791Z,73.82
2023-03-05T22:18:25.480Z,74.18
2023-03-05T22:20:52.696Z,74.34
2023-03-05T22:23:21.829Z,74.49
2023-03-05T22:26:14.979Z,74.41
2023-03-05T22:28:42.065Z,74.31
2023-03-05T22:31:09.876Z,73.91
2023-03-05T22:33:37.098Z,74.02
2023-03-05T22:36:07.893Z,74.33
2023-03-05T22:38:34.659Z,73.91
2023-03-05T22:41:01.486Z,74.34
2023-03-05T22:43:28.535Z,74.46
2023-03-05T22:45:55.559Z,74.35
2023-03-05T22:48:22.424Z,74.37
2023-03-05T22:50:54.096Z,74.36
2023-03-05T22:53:20.946Z,74.40
2023-03-05T22:55:47.853Z,74.57
2023-03-05T22:58:14.742Z,74.87
2023-03-05T23:00:42.112Z,74.74
2023-03-05T23:03:09.213Z,74.60
2023-03-05T23:05:37.853Z,74.60
2023-03-05T23:08:05.525Z,74.65
2023-03-05T23:10:32.399Z,74.53
2023-03-05T23:13:00.158Z,74.46
2023-03-05T23:15:31.771Z,74.34
2023-03-05T23:17:59.263Z,74.67
2023-03-05T23:20:28.275Z,74.75
2023-03-05T23:22:55.726Z,74.62
2023-03-05T23:25:24.515Z,74.60
2023-03-05T23:27:51.813Z,74.46
2023-03-05T23:30:21.618Z,74.62
2023-03-05T23:33:06.245Z,74.79
2023-03-05T23:35:33.406Z,74.95
2023-03-05T23:38:01.471Z,74.65
2023-03-05T23:40:30.284Z,75.08
2023-03-05T23:42:57.730Z,74.82
2023-03-05T23:45:24.997Z,74.63
2023-03-05T23:47:52.497Z,74.81
2023-03-05T23:50:24.034Z,74.92
2023-03-05T23:52:51.357Z,75.00
2023-03-05T23:55:19.771Z,74.76
2023-03-05T23:57:47.101Z,74.99
